Time;durP1;ratioP1;P1;durP2;ratioP2;P2;SDS_P1;SDS_P2;PMS_P1;PMS_P2;Temp;Humidity;BMP_temperature;BMP_pressure;BME280_temperature;BME280_humidity;BME280_pressure;Samples;Min_cycle;Max_cycle;Signal;HPM_P1;HPM_P2
2022/01/25 00:25:58;;;;;;;57.00;41.07;;;;;;;;;;5014962;28;20239;-64
2022/01/25 00:28:38;;;;;;;58.33;41.63;;;;;;;;;;5014314;28;20204;-64
2022/01/25 00:31:10;;;;;;;59.63;41.90;;;;;;;;;;5014830;28;20259;-64
2022/01/25 00:33:36;;;;;;;57.63;40.07;;;;;;;;;;5015033;28;20270;-64
2022/01/25 00:36:01;;;;;;;54.87;37.63;;;;;;;;;;5013759;28;20224;-64
2022/01/25 00:38:27;;;;;;;53.63;38.37;;;;;;;;;;4997350;28;20216;-64
2022/01/25 00:40:52;;;;;;;58.27;40.23;;;;;;;;;;5014981;28;20240;-64
2022/01/25 00:43:19;;;;;;;57.53;38.80;;;;;;;;;;5013512;28;20224;-64
2022/01/25 00:45:44;;;;;;;54.93;38.97;;;;;;;;;;5014890;28;20223;-64
2022/01/25 00:48:18;;;;;;;50.90;37.13;;;;;;;;;;5014127;28;20213;-64
2022/01/25 00:50:43;;;;;;;50.27;36.47;;;;;;;;;;5014210;28;20220;-64
2022/01/25 00:55:52;;;;;;;53.23;38.27;;;;;;;;;;5014915;28;20214;-64
2022/01/25 00:58:17;;;;;;;55.47;38.53;;;;;;;;;;5013181;28;20595;-64
2022/01/25 01:00:43;;;;;;;55.03;39.63;;;;;;;;;;5004782;28;20216;-64
2022/01/25 01:03:08;;;;;;;59.87;41.40;;;;;;;;;;4994484;28;20655;-64
2022/01/25 01:05:33;;;;;;;60.03;42.50;;;;;;;;;;4994203;28;20652;-64
2022/01/25 01:07:58;;;;;;;58.57;42.27;;;;;;;;;;4995095;28;20221;-64
2022/01/25 01:10:26;;;;;;;59.60;42.30;;;;;;;;;;4994076;28;20732;-64
2022/01/25 01:13:21;;;;;;;63.03;43.40;;;;;;;;;;4993985;28;20248;-64
2022/01/25 01:15:49;;;;;;;59.93;41.40;;;;;;;;;;4994178;28;20299;-64
2022/01/25 01:29:26;;;;;;;55.17;40.73;;;;;;;;;;5013231;28;20231;-64
2022/01/25 01:37:23;;;;;;;60.47;42.40;;;;;;;;;;5014007;28;20224;-64
2022/01/25 01:39:51;;;;;;;59.10;42.03;;;;;;;;;;5012665;28;20266;-64
2022/01/25 01:42:47;;;;;;;58.90;40.53;;;;;;;;;;5013373;28;20251;-64
2022/01/25 01:47:50;;;;;;;56.27;39.90;;;;;;;;;;5012940;28;20208;-64
2022/01/25 01:50:25;;;;;;;58.57;41.00;;;;;;;;;;5012828;28;20208;-64
2022/01/25 01:52:51;;;;;;;57.97;40.55;;;;;;;;;;4997984;28;20228;-64
2022/01/25 01:55:16;;;;;;;54.20;38.53;;;;;;;;;;5012122;28;20209;-64
2022/01/25 01:57:42;;;;;;;55.33;39.33;;;;;;;;;;5013459;28;20299;-64
2022/01/25 02:00:07;;;;;;;54.27;38.37;;;;;;;;;;5007257;28;20201;-64
2022/01/25 02:02:33;;;;;;;56.03;39.10;;;;;;;;;;4993921;28;20641;-64
2022/01/25 02:04:58;;;;;;;54.17;38.20;;;;;;;;;;4976379;28;20680;-64
2022/01/25 02:07:23;;;;;;;53.37;38.10;;;;;;;;;;4992605;28;20244;-64
2022/01/25 02:09:48;;;;;;;55.80;37.93;;;;;;;;;;4993638;28;20238;-64
2022/01/25 02:12:14;;;;;;;52.57;36.97;;;;;;;;;;4993465;28;20213;-64
2022/01/25 02:14:41;;;;;;;51.40;36.87;;;;;;;;;;4992593;28;20617;-64
2022/01/25 02:17:14;;;;;;;51.67;36.93;;;;;;;;;;4967226;28;20209;-64
2022/01/25 02:22:27;;;;;;;50.20;36.00;;;;;;;;;;4978343;28;20239;-64
2022/01/25 02:24:53;;;;;;;60.03;39.77;;;;;;;;;;5012962;28;20576;-64
2022/01/25 02:27:18;;;;;;;54.10;37.50;;;;;;;;;;5012786;28;20208;-64
2022/01/25 02:29:43;;;;;;;52.67;36.73;;;;;;;;;;5012056;28;20205;-64
2022/01/25 02:32:09;;;;;;;52.73;36.77;;;;;;;;;;4995111;28;20745;-64
2022/01/25 02:34:34;;;;;;;55.13;37.33;;;;;;;;;;5013112;28;20212;-64
2022/01/25 02:37:01;;;;;;;55.87;38.23;;;;;;;;;;4994548;28;20630;-64
2022/01/25 02:39:27;;;;;;;52.73;37.77;;;;;;;;;;5012453;28;20228;-64
2022/01/25 02:41:52;;;;;;;54.20;38.20;;;;;;;;;;5013007;28;20248;-64
2022/01/25 02:44:24;;;;;;;54.77;38.20;;;;;;;;;;5011520;28;20555;-64
2022/01/25 02:49:16;;;;;;;59.83;40.80;;;;;;;;;;5011994;28;20213;-64
2022/01/25 02:51:44;;;;;;;64.53;42.93;;;;;;;;;;5012424;28;20311;-64
2022/01/25 02:54:09;;;;;;;63.40;41.57;;;;;;;;;;4994735;28;20213;-64
2022/01/25 02:56:36;;;;;;;59.63;40.37;;;;;;;;;;4994364;28;20214;-64
2022/01/25 02:59:01;;;;;;;59.77;40.13;;;;;;;;;;5011983;28;20531;-64
2022/01/25 03:01:28;;;;;;;61.67;40.57;;;;;;;;;;4996467;28;20225;-64
2022/01/25 03:03:53;;;;;;;59.30;39.97;;;;;;;;;;4975280;28;20650;-64
2022/01/25 03:06:19;;;;;;;57.97;40.00;;;;;;;;;;4992269;28;20737;-65
2022/01/25 03:08:44;;;;;;;59.30;39.27;;;;;;;;;;4993098;28;20221;-64
2022/01/25 03:11:10;;;;;;;56.87;39.37;;;;;;;;;;4991643;28;20228;-64
2022/01/25 03:13:48;;;;;;;54.10;37.63;;;;;;;;;;4975722;28;20293;-64
2022/01/25 03:16:20;;;;;;;53.00;36.83;;;;;;;;;;4990634;28;20632;-64
2022/01/25 03:18:47;;;;;;;57.37;39.03;;;;;;;;;;4972739;28;20704;-64
2022/01/25 03:21:32;;;;;;;57.30;39.57;;;;;;;;;;4972650;28;20206;-64
2022/01/25 03:23:57;;;;;;;59.67;39.90;;;;;;;;;;4984491;28;20283;-64
2022/01/25 03:26:23;;;;;;;59.23;39.07;;;;;;;;;;4991457;28;20221;-64
2022/01/25 03:28:48;;;;;;;56.60;39.07;;;;;;;;;;4991775;28;20209;-64
2022/01/25 03:31:13;;;;;;;57.67;38.27;;;;;;;;;;4992041;28;20217;-64
2022/01/25 03:33:39;;;;;;;56.43;37.67;;;;;;;;;;4982567;28;20222;-64
2022/01/25 03:36:04;;;;;;;54.20;36.07;;;;;;;;;;4964708;28;20681;-64
2022/01/25 03:38:30;;;;;;;56.80;37.10;;;;;;;;;;4957604;28;20539;-64
2022/01/25 03:40:55;;;;;;;58.37;38.90;;;;;;;;;;4957751;28;20325;-64
2022/01/25 03:43:20;;;;;;;57.63;39.33;;;;;;;;;;4957374;28;20291;-64
2022/01/25 03:45:58;;;;;;;56.73;38.13;;;;;;;;;;4955687;28;20221;-64
2022/01/25 03:50:49;;;;;;;56.83;38.70;;;;;;;;;;4957519;28;20214;-64
2022/01/25 03:53:15;;;;;;;59.43;38.90;;;;;;;;;;4956633;28;20698;-64
2022/01/25 03:55:40;;;;;;;61.63;39.63;;;;;;;;;;4957668;28;20221;-64
2022/01/25 03:58:05;;;;;;;62.67;40.37;;;;;;;;;;4957079;28;20277;-64
2022/01/25 04:00:31;;;;;;;60.07;40.37;;;;;;;;;;4964816;28;20683;-64
2022/01/25 04:03:04;;;;;;;64.97;41.03;;;;;;;;;;4976681;28;20226;-64
2022/01/25 04:05:47;;;;;;;63.97;41.43;;;;;;;;;;4976402;28;20292;-64
2022/01/25 04:08:13;;;;;;;64.90;42.27;;;;;;;;;;4975474;28;20214;-64
2022/01/25 04:10:39;;;;;;;63.03;40.10;;;;;;;;;;4975480;28;20224;-64
2022/01/25 04:13:04;;;;;;;62.43;41.40;;;;;;;;;;4976353;28;20296;-64
2022/01/25 04:15:30;;;;;;;59.77;39.47;;;;;;;;;;4975911;28;20741;-64
2022/01/25 04:18:03;;;;;;;62.67;41.47;;;;;;;;;;4961214;28;20223;-64
2022/01/25 04:20:33;;;;;;;63.17;40.90;;;;;;;;;;4956892;28;20293;-64
2022/01/25 04:25:42;;;;;;;64.37;41.67;;;;;;;;;;5014921;28;20247;-64
2022/01/25 04:28:07;;;;;;;62.87;41.60;;;;;;;;;;5014087;28;20288;-64
2022/01/25 04:30:33;;;;;;;66.93;42.97;;;;;;;;;;4997722;28;20255;-64
2022/01/25 04:33:02;;;;;;;63.63;41.20;;;;;;;;;;5015181;28;20263;-64
2022/01/25 04:51:42;;;;;;;63.60;41.57;;;;;;;;;;5014289;28;20220;-64
2022/01/25 04:59:34;;;;;;;61.08;40.38;;;;;;;;;;4998227;28;20288;-64
2022/01/25 05:02:03;;;;;;;66.47;43.07;;;;;;;;;;4975550;28;20236;-64
2022/01/25 05:04:33;;;;;;;69.20;44.90;;;;;;;;;;4974336;28;20692;-64
2022/01/25 05:07:08;;;;;;;68.27;44.03;;;;;;;;;;4975498;28;20314;-64
2022/01/25 05:09:35;;;;;;;69.17;45.50;;;;;;;;;;4975576;28;20210;-64
2022/01/25 05:12:02;;;;;;;69.80;44.33;;;;;;;;;;4974424;28;20206;-64
2022/01/25 05:14:33;;;;;;;64.27;42.13;;;;;;;;;;4975507;28;20353;-64
2022/01/25 05:17:02;;;;;;;64.87;42.33;;;;;;;;;;4982025;28;20209;-64
2022/01/25 05:22:18;;;;;;;63.93;40.90;;;;;;;;;;4994629;28;20367;-64
2022/01/25 05:24:44;;;;;;;64.47;41.50;;;;;;;;;;5012902;28;20230;-64
2022/01/25 05:27:11;;;;;;;63.83;41.17;;;;;;;;;;4996325;28;20677;-64
2022/01/25 05:29:36;;;;;;;67.67;43.50;;;;;;;;;;5014152;28;20243;-64
2022/01/25 05:32:01;;;;;;;63.67;41.87;;;;;;;;;;5012652;28;20240;-64
2022/01/25 05:34:27;;;;;;;60.50;40.20;;;;;;;;;;5013966;28;20208;-64
2022/01/25 05:36:52;;;;;;;62.63;40.60;;;;;;;;;;5013999;28;20220;-64
2022/01/25 05:39:23;;;;;;;62.40;41.07;;;;;;;;;;4995236;28;20213;-64
2022/01/25 05:41:56;;;;;;;65.27;41.67;;;;;;;;;;5013708;28;20225;-64
2022/01/25 05:44:25;;;;;;;60.60;40.37;;;;;;;;;;5013560;28;20258;-64
2022/01/25 05:47:04;;;;;;;61.83;40.93;;;;;;;;;;5012844;28;20303;-64
2022/01/25 05:49:30;;;;;;;66.03;42.27;;;;;;;;;;5013574;28;20230;-64
2022/01/25 05:51:55;;;;;;;61.90;41.00;;;;;;;;;;4996111;28;20216;-64
2022/01/25 05:54:21;;;;;;;60.83;39.67;;;;;;;;;;5012472;28;20599;-64
2022/01/25 05:56:46;;;;;;;62.17;40.90;;;;;;;;;;5013515;28;20243;-64
2022/01/25 05:59:11;;;;;;;62.17;41.73;;;;;;;;;;5012223;28;20739;-63
2022/01/25 06:01:36;;;;;;;63.70;42.93;;;;;;;;;;4996014;28;20225;-64
2022/01/25 06:04:02;;;;;;;65.23;42.90;;;;;;;;;;4993384;28;20244;-64
2022/01/25 06:06:29;;;;;;;63.80;41.20;;;;;;;;;;4975530;28;20216;-64
2022/01/25 06:08:54;;;;;;;66.57;42.67;;;;;;;;;;4993905;28;20264;-64
2022/01/25 06:11:20;;;;;;;65.20;41.97;;;;;;;;;;4993546;28;20559;-64
2022/01/25 06:13:45;;;;;;;67.00;43.70;;;;;;;;;;4992834;28;20235;-64
2022/01/25 06:16:11;;;;;;;64.85;42.90;;;;;;;;;;4992222;28;20232;-64
2022/01/25 06:18:36;;;;;;;66.03;42.60;;;;;;;;;;4974285;28;20206;-64
2022/01/25 06:21:01;;;;;;;68.47;44.23;;;;;;;;;;4973045;28;20352;-64
2022/01/25 06:23:26;;;;;;;67.27;42.60;;;;;;;;;;4997195;28;20232;-64
2022/01/25 06:25:52;;;;;;;66.43;43.43;;;;;;;;;;5013079;28;20262;-64
2022/01/25 06:28:18;;;;;;;66.73;42.60;;;;;;;;;;5011603;28;20253;-64
2022/01/25 06:30:44;;;;;;;64.87;41.77;;;;;;;;;;5013039;28;20212;-64
2022/01/25 06:33:10;;;;;;;65.83;41.27;;;;;;;;;;4995213;28;20216;-64
2022/01/25 06:35:35;;;;;;;68.53;42.67;;;;;;;;;;4994664;28;20263;-64
2022/01/25 06:38:01;;;;;;;64.83;41.47;;;;;;;;;;5012366;28;20275;-64
2022/01/25 06:40:26;;;;;;;68.17;42.17;;;;;;;;;;5013025;28;20216;-64
2022/01/25 06:42:51;;;;;;;63.63;40.60;;;;;;;;;;5011990;28;20687;-64
2022/01/25 06:45:19;;;;;;;67.23;42.83;;;;;;;;;;4994787;28;20216;-64
2022/01/25 06:47:45;;;;;;;66.57;42.03;;;;;;;;;;5012734;28;20208;-64
2022/01/25 06:50:10;;;;;;;64.37;41.07;;;;;;;;;;5011574;28;20220;-64
2022/01/25 06:52:38;;;;;;;67.43;42.97;;;;;;;;;;5012637;28;20208;-64
2022/01/25 06:55:05;;;;;;;70.63;43.33;;;;;;;;;;5012276;28;20219;-64
2022/01/25 06:57:30;;;;;;;69.70;43.97;;;;;;;;;;4994193;28;20208;-64
2022/01/25 06:59:55;;;;;;;69.77;44.03;;;;;;;;;;5009039;28;20231;-62
2022/01/25 07:02:20;;;;;;;67.80;43.67;;;;;;;;;;4992054;28;20225;-64
2022/01/25 07:04:46;;;;;;;70.97;46.20;;;;;;;;;;4992468;28;20507;-64
2022/01/25 07:07:11;;;;;;;70.43;44.07;;;;;;;;;;4988155;28;20213;-61
2022/01/25 07:09:36;;;;;;;69.77;45.37;;;;;;;;;;4997189;28;20209;-63
2022/01/25 07:12:02;;;;;;;71.50;45.10;;;;;;;;;;4999215;28;20691;-62
2022/01/25 07:14:28;;;;;;;68.67;43.87;;;;;;;;;;4987911;28;20205;-63
2022/01/25 07:16:54;;;;;;;67.50;43.73;;;;;;;;;;4989837;28;20712;-63
2022/01/25 07:19:20;;;;;;;69.00;42.97;;;;;;;;;;4988105;28;20208;-63
2022/01/25 07:21:45;;;;;;;66.47;42.10;;;;;;;;;;4989805;28;20223;-63
2022/01/25 07:24:10;;;;;;;62.73;41.33;;;;;;;;;;5002320;28;20213;-62
2022/01/25 07:26:35;;;;;;;65.70;42.87;;;;;;;;;;4989322;28;20296;-62
2022/01/25 07:29:01;;;;;;;65.20;42.17;;;;;;;;;;4979258;28;20221;-62
2022/01/25 07:31:26;;;;;;;68.50;42.73;;;;;;;;;;4979052;28;20296;-63
2022/01/25 07:33:52;;;;;;;69.50;43.17;;;;;;;;;;4979692;28;20316;-63
2022/01/25 07:36:18;;;;;;;67.10;42.10;;;;;;;;;;4979221;28;20305;-63
2022/01/25 07:38:43;;;;;;;62.30;41.30;;;;;;;;;;4978747;28;20700;-64
2022/01/25 07:41:08;;;;;;;61.17;39.77;;;;;;;;;;4979156;28;20285;-63
2022/01/25 07:43:34;;;;;;;66.77;42.87;;;;;;;;;;4979643;28;20577;-63
2022/01/25 07:46:04;;;;;;;64.83;42.30;;;;;;;;;;4978902;28;20677;-63
2022/01/25 07:48:29;;;;;;;70.37;43.87;;;;;;;;;;4979294;28;20244;-64
2022/01/25 07:50:54;;;;;;;68.57;43.53;;;;;;;;;;4963028;28;20237;-64
2022/01/25 07:53:19;;;;;;;68.43;43.57;;;;;;;;;;4997784;28;20751;-63
2022/01/25 07:55:45;;;;;;;71.47;44.67;;;;;;;;;;4963447;28;20317;-63
2022/01/25 07:58:10;;;;;;;68.40;43.23;;;;;;;;;;4983803;28;20564;-63
2022/01/25 08:00:35;;;;;;;70.27;43.60;;;;;;;;;;4986058;28;20256;-71
2022/01/25 08:03:01;;;;;;;69.10;42.87;;;;;;;;;;4979285;28;20226;-68
2022/01/25 08:05:26;;;;;;;71.13;45.03;;;;;;;;;;4962143;28;20252;-73
2022/01/25 08:07:52;;;;;;;72.67;45.60;;;;;;;;;;4978598;28;20218;-72
2022/01/25 08:10:17;;;;;;;72.20;45.00;;;;;;;;;;4961699;28;20214;-72
2022/01/25 08:12:43;;;;;;;70.63;43.73;;;;;;;;;;4979616;28;20300;-72
2022/01/25 08:15:08;;;;;;;68.77;43.57;;;;;;;;;;4960806;28;20217;-72
2022/01/25 08:17:34;;;;;;;70.40;44.13;;;;;;;;;;4973951;28;20217;-62
2022/01/25 08:19:59;;;;;;;69.90;43.73;;;;;;;;;;4994677;28;20224;-63
2022/01/25 08:22:24;;;;;;;71.17;43.77;;;;;;;;;;4998244;28;20220;-62
2022/01/25 08:24:50;;;;;;;71.37;43.97;;;;;;;;;;5015209;28;20307;-63
2022/01/25 08:27:19;;;;;;;69.87;44.50;;;;;;;;;;4996591;28;20212;-64
2022/01/25 08:29:45;;;;;;;70.80;43.40;;;;;;;;;;5015136;28;20274;-62
2022/01/25 08:32:10;;;;;;;72.17;44.17;;;;;;;;;;4994880;28;20689;-63
2022/01/25 08:34:36;;;;;;;72.10;45.40;;;;;;;;;;4977157;28;20790;-63
2022/01/25 08:37:01;;;;;;;71.03;44.60;;;;;;;;;;4977699;28;20221;-63
2022/01/25 08:39:28;;;;;;;70.63;43.67;;;;;;;;;;4977823;28;20217;-63
2022/01/25 08:41:53;;;;;;;69.13;43.37;;;;;;;;;;4994678;28;20248;-62
2022/01/25 08:44:19;;;;;;;70.57;43.87;;;;;;;;;;4994975;28;20221;-63
2022/01/25 08:46:44;;;;;;;80.80;48.30;;;;;;;;;;4995412;28;20344;-63
2022/01/25 08:49:09;;;;;;;67.63;42.57;;;;;;;;;;4993029;28;20225;-63
2022/01/25 08:51:34;;;;;;;71.47;43.43;;;;;;;;;;4992684;28;20239;-63
2022/01/25 08:54:00;;;;;;;72.60;46.30;;;;;;;;;;4995082;28;20219;-63
2022/01/25 08:56:25;;;;;;;75.43;46.10;;;;;;;;;;4976917;28;20212;-63
2022/01/25 08:58:50;;;;;;;72.97;45.17;;;;;;;;;;4977600;28;20236;-63
2022/01/25 09:01:16;;;;;;;75.40;44.63;;;;;;;;;;4994527;28;20221;-63
2022/01/25 09:03:41;;;;;;;68.90;43.73;;;;;;;;;;4976405;28;20248;-63
2022/01/25 09:06:06;;;;;;;69.80;43.23;;;;;;;;;;4977228;28;20223;-63
2022/01/25 09:08:32;;;;;;;70.13;44.20;;;;;;;;;;4994817;28;20292;-63
2022/01/25 09:10:59;;;;;;;68.37;42.33;;;;;;;;;;4994131;28;20621;-63
2022/01/25 09:13:25;;;;;;;75.20;44.90;;;;;;;;;;4994587;28;20724;-63
2022/01/25 09:15:50;;;;;;;70.60;44.00;;;;;;;;;;4994960;28;20289;-63
2022/01/25 09:18:15;;;;;;;67.53;43.03;;;;;;;;;;4975508;28;20210;-63
2022/01/25 09:20:41;;;;;;;73.87;45.47;;;;;;;;;;4958054;28;20210;-63
2022/01/25 09:23:06;;;;;;;73.50;44.10;;;;;;;;;;4974870;28;20232;-63
2022/01/25 09:25:31;;;;;;;71.40;43.10;;;;;;;;;;4996006;28;20567;-63
2022/01/25 09:27:57;;;;;;;74.00;43.93;;;;;;;;;;5014331;28;20335;-62
2022/01/25 09:30:22;;;;;;;72.53;44.43;;;;;;;;;;5012633;28;20552;-63
2022/01/25 09:32:47;;;;;;;71.83;44.23;;;;;;;;;;5014071;28;20694;-62
2022/01/25 09:35:13;;;;;;;70.93;43.03;;;;;;;;;;5013132;28;20219;-63
2022/01/25 09:37:38;;;;;;;70.70;42.40;;;;;;;;;;5013184;28;20220;-63
2022/01/25 09:40:04;;;;;;;72.80;42.47;;;;;;;;;;4995767;28;20209;-63
2022/01/25 09:42:30;;;;;;;70.67;42.23;;;;;;;;;;5013901;28;20303;-63
2022/01/25 09:44:55;;;;;;;77.30;44.73;;;;;;;;;;5013217;28;20208;-63
2022/01/25 09:47:21;;;;;;;74.30;43.57;;;;;;;;;;5013613;28;20231;-63
2022/01/25 09:49:46;;;;;;;78.40;44.67;;;;;;;;;;5013377;28;20216;-62
2022/01/25 09:52:11;;;;;;;73.00;43.97;;;;;;;;;;5012594;28;20213;-62
2022/01/25 09:54:37;;;;;;;73.00;43.37;;;;;;;;;;5013380;28;20664;-62
2022/01/25 09:57:02;;;;;;;73.70;43.30;;;;;;;;;;5013049;28;20674;-62
2022/01/25 09:59:28;;;;;;;73.83;43.03;;;;;;;;;;5009725;28;20258;-62
2022/01/25 10:01:53;;;;;;;67.53;41.30;;;;;;;;;;4975888;28;20229;-63
2022/01/25 10:04:26;;;;;;;68.47;41.00;;;;;;;;;;4976437;28;20252;-63
2022/01/25 10:06:51;;;;;;;68.27;41.17;;;;;;;;;;4993083;28;20227;-63
2022/01/25 10:09:17;;;;;;;70.50;42.00;;;;;;;;;;4975883;28;20685;-63
2022/01/25 10:11:42;;;;;;;72.90;42.40;;;;;;;;;;4993554;28;20225;-63
2022/01/25 10:14:07;;;;;;;69.63;42.87;;;;;;;;;;4992313;28;20224;-63
2022/01/25 10:16:33;;;;;;;68.90;41.03;;;;;;;;;;4974155;28;20292;-63
2022/01/25 10:19:01;;;;;;;69.27;42.40;;;;;;;;;;4975805;28;20245;-63
2022/01/25 10:21:28;;;;;;;82.10;47.20;;;;;;;;;;4974809;28;20248;-63
2022/01/25 10:24:00;;;;;;;86.03;48.13;;;;;;;;;;4993169;28;20762;-63
2022/01/25 10:26:25;;;;;;;69.70;41.93;;;;;;;;;;4992421;28;20668;-63
2022/01/25 10:28:50;;;;;;;68.27;41.43;;;;;;;;;;4975585;28;20213;-62
2022/01/25 10:31:16;;;;;;;68.80;42.27;;;;;;;;;;4993135;28;20213;-63
2022/01/25 10:33:50;;;;;;;69.83;43.10;;;;;;;;;;4992381;28;20213;-62
2022/01/25 10:36:16;;;;;;;68.67;41.20;;;;;;;;;;4992589;28;20225;-63
2022/01/25 10:38:42;;;;;;;67.77;40.13;;;;;;;;;;4993134;28;20639;-63
2022/01/25 10:41:08;;;;;;;70.10;45.03;;;;;;;;;;4991858;28;20225;-62
2022/01/25 10:43:34;;;;;;;71.63;44.50;;;;;;;;;;4992366;28;20229;-63
2022/01/25 10:46:14;;;;;;;69.63;42.23;;;;;;;;;;4975806;28;20221;-63
2022/01/25 10:48:40;;;;;;;67.90;41.13;;;;;;;;;;4991775;28;20215;-63
2022/01/25 10:51:06;;;;;;;70.07;42.80;;;;;;;;;;4992676;28;20699;-63
2022/01/25 10:53:32;;;;;;;67.67;40.77;;;;;;;;;;4993101;28;20213;-63
2022/01/25 10:55:57;;;;;;;69.33;42.23;;;;;;;;;;4992192;28;20288;-63
2022/01/25 10:58:23;;;;;;;69.40;41.77;;;;;;;;;;4992265;28;20213;-62
2022/01/25 11:00:50;;;;;;;66.70;42.27;;;;;;;;;;4989153;28;20216;-63
2022/01/25 11:03:25;;;;;;;80.40;48.80;;;;;;;;;;5010937;28;20248;-63
2022/01/25 11:05:50;;;;;;;74.57;44.50;;;;;;;;;;5012449;28;20260;-63
2022/01/25 11:08:17;;;;;;;69.70;42.40;;;;;;;;;;5011882;28;20208;-63
2022/01/25 11:10:46;;;;;;;70.33;41.47;;;;;;;;;;5011811;28;20224;-63
2022/01/25 11:13:23;;;;;;;66.57;41.20;;;;;;;;;;5011965;28;20299;-63
2022/01/25 11:15:48;;;;;;;71.07;40.83;;;;;;;;;;4991916;28;20584;-63
2022/01/25 11:18:14;;;;;;;69.07;41.43;;;;;;;;;;4989826;28;20209;-62
2022/01/25 11:20:39;;;;;;;67.60;41.67;;;;;;;;;;4992795;28;20255;-62
2022/01/25 11:23:04;;;;;;;71.50;43.30;;;;;;;;;;4999987;28;20593;-62
2022/01/25 11:25:29;;;;;;;68.37;41.00;;;;;;;;;;5012221;28;20704;-61
2022/01/25 11:27:57;;;;;;;66.93;42.27;;;;;;;;;;4976058;28;20217;-62
2022/01/25 11:30:22;;;;;;;70.10;42.57;;;;;;;;;;4955107;28;20232;-62
2022/01/25 11:32:48;;;;;;;74.10;46.00;;;;;;;;;;4955865;28;20589;-62
2022/01/25 11:35:14;;;;;;;119.57;70.43;;;;;;;;;;4972834;28;20264;-62
2022/01/25 11:37:42;;;;;;;73.13;43.67;;;;;;;;;;4955564;28;20225;-62
2022/01/25 11:40:31;;;;;;;76.70;44.57;;;;;;;;;;4955786;28;20224;-62
2022/01/25 11:42:59;;;;;;;70.40;41.57;;;;;;;;;;4985304;28;20255;-62
2022/01/25 11:45:26;;;;;;;68.77;40.87;;;;;;;;;;4991189;28;20223;-62
2022/01/25 11:47:52;;;;;;;63.30;39.10;;;;;;;;;;4992463;28;20639;-61
2022/01/25 11:50:17;;;;;;;66.93;42.03;;;;;;;;;;4991954;28;20310;-62
2022/01/25 11:52:48;;;;;;;63.50;38.57;;;;;;;;;;4991931;28;20316;-62
2022/01/25 11:55:24;;;;;;;66.73;38.93;;;;;;;;;;4977700;28;20707;-61
2022/01/25 11:57:53;;;;;;;68.60;40.47;;;;;;;;;;4996063;28;20220;-62
2022/01/25 12:00:21;;;;;;;67.63;41.63;;;;;;;;;;4988794;28;20201;-62
2022/01/25 12:02:47;;;;;;;67.30;40.13;;;;;;;;;;4976420;28;20233;-62
2022/01/25 12:05:13;;;;;;;65.67;39.57;;;;;;;;;;4975693;28;20226;-62
2022/01/25 12:07:41;;;;;;;67.20;39.80;;;;;;;;;;4976891;28;20569;-62
2022/01/25 12:10:35;;;;;;;65.23;39.57;;;;;;;;;;4976454;28;20265;-62
2022/01/25 12:13:10;;;;;;;66.63;39.33;;;;;;;;;;4975570;28;20677;-62
2022/01/25 12:15:35;;;;;;;63.80;38.53;;;;;;;;;;4976563;28;20205;-62
2022/01/25 12:18:02;;;;;;;71.27;40.73;;;;;;;;;;4991500;28;20546;-62
2022/01/25 12:20:27;;;;;;;66.73;39.83;;;;;;;;;;4995259;28;20260;-62
2022/01/25 12:23:05;;;;;;;67.67;40.67;;;;;;;;;;5002553;28;20245;-61
2022/01/25 12:25:36;;;;;;;67.80;39.90;;;;;;;;;;5015244;28;20576;-62
2022/01/25 12:28:07;;;;;;;67.07;39.53;;;;;;;;;;4997274;28;20247;-62
2022/01/25 12:30:34;;;;;;;64.43;38.43;;;;;;;;;;5015559;28;20305;-62
2022/01/25 12:33:07;;;;;;;65.90;40.33;;;;;;;;;;5015021;28;20216;-61
2022/01/25 12:35:33;;;;;;;64.87;39.90;;;;;;;;;;5014951;28;20205;-62
2022/01/25 12:37:59;;;;;;;66.27;39.47;;;;;;;;;;5015020;28;20290;-62
2022/01/25 12:40:24;;;;;;;66.00;40.00;;;;;;;;;;5013927;28;20994;-62
2022/01/25 12:42:50;;;;;;;64.50;39.43;;;;;;;;;;5015285;28;20298;-62
2022/01/25 12:45:16;;;;;;;63.33;39.00;;;;;;;;;;4978257;28;20224;-61
2022/01/25 12:47:50;;;;;;;67.73;38.63;;;;;;;;;;4976788;28;20209;-62
2022/01/25 12:50:15;;;;;;;67.77;39.67;;;;;;;;;;4977530;28;20244;-62
2022/01/25 12:52:40;;;;;;;67.17;39.97;;;;;;;;;;4995422;28;20653;-62
2022/01/25 12:55:06;;;;;;;63.00;38.03;;;;;;;;;;4976493;28;20294;-62
2022/01/25 12:57:32;;;;;;;65.83;39.47;;;;;;;;;;4977996;28;20201;-62
2022/01/25 12:59:58;;;;;;;63.03;38.23;;;;;;;;;;4994697;28;20209;-62
2022/01/25 13:02:26;;;;;;;68.53;38.93;;;;;;;;;;4976062;28;20291;-62
2022/01/25 13:04:52;;;;;;;67.27;39.77;;;;;;;;;;4994990;28;20221;-62
2022/01/25 13:07:17;;;;;;;106.27;55.70;;;;;;;;;;4993539;28;20209;-62
2022/01/25 13:09:45;;;;;;;68.63;40.53;;;;;;;;;;4994382;28;20321;-62
2022/01/25 13:12:15;;;;;;;79.17;45.80;;;;;;;;;;4994440;28;20668;-62
2022/01/25 13:14:50;;;;;;;64.37;39.40;;;;;;;;;;4977982;28;20248;-62
2022/01/25 13:17:17;;;;;;;66.80;39.53;;;;;;;;;;4993227;28;20240;-61
2022/01/25 13:19:46;;;;;;;89.57;60.00;;;;;;;;;;4993437;28;20428;-61
2022/01/25 13:22:14;;;;;;;69.83;43.10;;;;;;;;;;4978618;28;20232;-62
2022/01/25 13:24:47;;;;;;;67.50;39.00;;;;;;;;;;5013423;28;20228;-62
2022/01/25 13:27:14;;;;;;;63.00;37.80;;;;;;;;;;5013715;28;20224;-62
2022/01/25 13:32:26;;;;;;;65.07;38.73;;;;;;;;;;5013450;28;20219;-62
2022/01/25 13:34:59;;;;;;;61.90;37.57;;;;;;;;;;5013973;28;20220;-62
2022/01/25 13:37:24;;;;;;;62.93;38.03;;;;;;;;;;5009704;28;20221;-62
2022/01/25 13:39:54;;;;;;;68.35;40.25;;;;;;;;;;5013870;28;20335;-61
2022/01/25 13:42:23;;;;;;;65.53;39.53;;;;;;;;;;4996077;28;20274;-61
2022/01/25 13:47:32;;;;;;;62.60;37.90;;;;;;;;;;4998351;28;20215;-62
2022/01/25 13:49:59;;;;;;;66.40;38.90;;;;;;;;;;4996034;28;20208;-62
2022/01/25 13:52:28;;;;;;;63.50;38.13;;;;;;;;;;5012304;28;20223;-63
2022/01/25 13:54:53;;;;;;;64.40;38.20;;;;;;;;;;4995978;28;20266;-62
2022/01/25 13:57:18;;;;;;;62.73;36.60;;;;;;;;;;5013323;28;20295;-62
2022/01/25 13:59:47;;;;;;;64.30;38.13;;;;;;;;;;5010418;28;20212;-62
2022/01/25 14:02:12;;;;;;;61.97;38.37;;;;;;;;;;4992968;28;20233;-61
2022/01/25 14:04:38;;;;;;;70.03;41.20;;;;;;;;;;4993125;28;20214;-61
2022/01/25 14:07:03;;;;;;;67.67;38.77;;;;;;;;;;4993603;28;20248;-61
2022/01/25 14:09:34;;;;;;;63.33;37.43;;;;;;;;;;4993871;28;20676;-61
2022/01/25 14:22:54;;;;;;;60.57;37.13;;;;;;;;;;4985289;28;20378;-61
2022/01/25 14:25:28;;;;;;;64.50;37.17;;;;;;;;;;4996208;28;20302;-61
2022/01/25 14:27:54;;;;;;;61.60;36.97;;;;;;;;;;4994907;28;20221;-61
2022/01/25 14:30:19;;;;;;;63.57;37.53;;;;;;;;;;4995091;28;20347;-61
2022/01/25 14:32:46;;;;;;;62.07;36.03;;;;;;;;;;5008872;28;20262;-61
2022/01/25 14:35:11;;;;;;;64.80;37.30;;;;;;;;;;4994905;28;20295;-61
2022/01/25 14:37:40;;;;;;;66.00;38.57;;;;;;;;;;5012966;28;20302;-61
2022/01/25 14:40:07;;;;;;;64.47;37.53;;;;;;;;;;5011688;28;20204;-61
2022/01/25 14:42:32;;;;;;;60.07;35.93;;;;;;;;;;4978883;28;20578;-62
2022/01/25 14:45:02;;;;;;;64.17;37.77;;;;;;;;;;5012686;28;20220;-60
2022/01/25 14:47:35;;;;;;;62.53;38.00;;;;;;;;;;5011175;28;20300;-61
2022/01/25 14:50:00;;;;;;;64.37;38.13;;;;;;;;;;5012672;28;20224;-61
2022/01/25 14:52:26;;;;;;;60.73;37.13;;;;;;;;;;4995045;28;20566;-61
2022/01/25 14:54:51;;;;;;;63.83;38.17;;;;;;;;;;4992325;28;20295;-61
2022/01/25 14:57:19;;;;;;;60.37;37.13;;;;;;;;;;4992702;28;20223;-61
2022/01/25 14:59:51;;;;;;;62.90;37.17;;;;;;;;;;4990806;28;20229;-61
2022/01/25 15:02:18;;;;;;;63.10;38.03;;;;;;;;;;4972038;28;20257;-62
2022/01/25 15:04:45;;;;;;;63.05;37.92;;;;;;;;;;4973540;28;20225;-61
2022/01/25 15:07:10;;;;;;;63.03;37.40;;;;;;;;;;4973331;28;20371;-61
2022/01/25 15:09:36;;;;;;;61.23;36.77;;;;;;;;;;4973012;28;20724;-61
2022/01/25 15:12:01;;;;;;;63.37;37.00;;;;;;;;;;4973152;28;20214;-61
2022/01/25 15:14:36;;;;;;;64.07;37.90;;;;;;;;;;4973583;28;20211;-61
2022/01/25 15:17:02;;;;;;;64.37;37.93;;;;;;;;;;4979470;28;20307;-61
2022/01/25 15:19:27;;;;;;;65.83;38.37;;;;;;;;;;4992737;28;20229;-61
2022/01/25 15:21:52;;;;;;;62.73;37.83;;;;;;;;;;4992161;28;20623;-62
2022/01/25 15:24:18;;;;;;;66.47;37.17;;;;;;;;;;5010540;28;20228;-60
2022/01/25 15:26:47;;;;;;;65.87;39.07;;;;;;;;;;5012359;28;20217;-61
2022/01/25 15:29:20;;;;;;;66.23;38.57;;;;;;;;;;4995466;28;20755;-61
2022/01/25 15:31:45;;;;;;;65.70;38.13;;;;;;;;;;5009861;28;20239;-61
2022/01/25 15:34:10;;;;;;;65.47;39.43;;;;;;;;;;4976986;28;20629;-61
2022/01/25 15:36:36;;;;;;;66.07;40.63;;;;;;;;;;4976413;28;20217;-61
2022/01/25 15:39:01;;;;;;;64.77;38.07;;;;;;;;;;4976746;28;20218;-61
2022/01/25 15:41:33;;;;;;;60.23;36.20;;;;;;;;;;4959882;28;20797;-61
2022/01/25 15:43:59;;;;;;;63.77;37.73;;;;;;;;;;4959126;28;20607;-61
2022/01/25 15:46:29;;;;;;;63.97;37.70;;;;;;;;;;4992722;28;20221;-61
2022/01/25 15:48:55;;;;;;;63.37;37.77;;;;;;;;;;4963022;28;20738;-61
2022/01/25 15:51:20;;;;;;;64.87;37.93;;;;;;;;;;4977847;28;20304;-61
2022/01/25 15:53:46;;;;;;;62.40;36.90;;;;;;;;;;4996326;28;20209;-61